National Geographic Sea Bird — WAK8004 — position and weather

sailwx.info

Track history (hours):
 
Tides and Currents Weather Stations Pressure Air Temp Water Temp Dewpoint Dewpoint Depression Visibility Wind Speed Wind Dir Waves Ship Positions

National Geographic Sea Bird

Owner: Lindblad Expeditions, Inc., SEATTLE, WA. More information available from US FCC via Universal Licensing System and Coast Guard Vessel Documentation Center.

Last reported at 2016-Dec-13 03:10 UTC. Time now 2017-Mar-30 14:42 UTC.
Position N 30°42' W 117°05'.
Warning: this ship's position is months out of date.

Length 50 m; draft 2.7 m.

Type: Passenger vessel. MMSI: 366892350.

Date/timePositionNaut miles runAvg speedWind from/ knotsBaromVisibWave heightAir tempDewpointWater temp
2016-Dec-13 03:10N 30°42' W 117°05'3710.3
2016-Dec-12 23:33N 31°10' W 117°34'1110.4
2016-Dec-12 22:29N 31°18' W 117°42'1010.3
2016-Dec-12 21:29N 31°25' W 117°51'2010.6
2016-Dec-12 19:33N 31°40' W 118°07'5810.9
2016-Dec-12 14:15N 32°25' W 118°49'710.7
2016-Dec-12 13:33N 32°29' W 118°57'1310.6
2016-Dec-12 12:19N 32°36' W 119°10'810.5
2016-Dec-12 11:33N 32°41' W 119°18'1110.3
2016-Dec-12 10:31N 32°49' W 119°26'1010.3
2016-Dec-12 09:33N 32°56' W 119°35'1110.7
2016-Dec-12 08:33N 33°03' W 119°44'1410.5
2016-Dec-12 07:15N 33°12' W 119°56'910.2
2016-Dec-12 06:20N 33°18' W 120°05'810.2
2016-Dec-12 05:32N 33°24' W 120°12'1111.0
2016-Dec-12 04:33N 33°31' W 120°22'1111.0
2016-Dec-12 03:33N 33°38' W 120°32'1110.6
2016-Dec-12 02:33N 33°45' W 120°41'1110.3
2016-Dec-12 01:29N 33°53' W 120°51'910.2
2016-Dec-12 00:33N 33°59' W 120°59'1010.1
2016-Dec-11 23:32N 34°08' W 121°06'1010.7
2016-Dec-11 22:33N 34°17' W 121°12'1110.9
2016-Dec-11 21:32N 34°27' W 121°18'1111.1
2016-Dec-11 20:33N 34°37' W 121°24'1111.1
2016-Dec-11 19:32N 34°47' W 121°31'1210.7
2016-Dec-11 18:28N 34°57' W 121°38'1010.5
2016-Dec-11 17:33N 35°05' W 121°44'1110.8
2016-Dec-11 16:33N 35°14' W 121°50'10710.5
2016-Dec-11 06:27N 36°53' W 122°39'1010.3
2016-Dec-11 05:31N 37°03' W 122°41'2010.1
2016-Dec-11 03:33N 37°23' W 122°44'10 9.8
2016-Dec-11 02:33N 37°33' W 122°44'10 9.6
2016-Dec-11 01:33N 37°42' W 122°43'7 7.2
2016-Dec-11 00:33N 37°47' W 122°37'7 7.4
2016-Dec-10 23:33N 37°49' W 122°28'5 5.1
2016-Dec-10 22:33N 37°48' W 122°22'3 3.0
2016-Dec-10 21:33N 37°48' W 122°18'0 0.5
2016-Dec-10 20:33N 37°47' W 122°17'0 0.0
2016-Dec-10 19:30N 37°47' W 122°17'0 0.0
2016-Dec-10 18:30N 37°47' W 122°17'0 0.0
2016-Dec-10 17:33N 37°47' W 122°17'0 0.0
2016-Dec-10 16:33N 37°47' W 122°17'0 0.0
2016-Dec-10 15:33N 37°47' W 122°17'0 0.0
2016-Dec-10 14:33N 37°47' W 122°17'0 0.0
2016-Dec-10 13:33N 37°47' W 122°17'0 0.0
2016-Dec-10 12:33N 37°47' W 122°17'0 0.0
2016-Dec-10 11:33N 37°47' W 122°17'0 0.0
2016-Dec-10 10:33N 37°47' W 122°17'0 0.0
2016-Dec-10 09:33N 37°47' W 122°17'0 0.0
2016-Dec-10 08:33N 37°47' W 122°17'0 0.0
2016-Dec-10 07:32N 37°47' W 122°17'0 0.0
2016-Dec-10 06:32N 37°47' W 122°17'0 0.0
2016-Dec-10 05:32N 37°47' W 122°17'0 0.0
2016-Dec-10 04:33N 37°47' W 122°17'0 0.0
2016-Dec-10 03:32N 37°47' W 122°17'0 0.0
2016-Dec-10 02:32N 37°47' W 122°17'0 0.0
2016-Dec-10 01:32N 37°47' W 122°17'0 0.0
2016-Dec-10 00:32N 37°47' W 122°17'0 0.0
2016-Dec-09 23:32N 37°47' W 122°17'0 0.0
2016-Dec-09 22:32N 37°47' W 122°17'0 0.0
2016-Dec-09 21:32N 37°47' W 122°17'0 0.0
2016-Dec-09 20:32N 37°47' W 122°17'0 0.0
2016-Dec-09 19:32N 37°47' W 122°17'0 0.0
2016-Dec-09 18:32N 37°47' W 122°17'0 0.0
2016-Dec-09 17:32N 37°47' W 122°17'0 0.0
2016-Dec-09 16:32N 37°47' W 122°17'0 0.0
2016-Dec-09 15:32N 37°47' W 122°17'0 0.0
2016-Dec-09 14:32N 37°47' W 122°17'0 0.0
2016-Dec-09 13:32N 37°47' W 122°17'0 0.0
2016-Dec-09 12:32N 37°47' W 122°17'0 0.0
2016-Dec-09 11:32N 37°47' W 122°17'0 0.0
2016-Dec-09 10:32N 37°47' W 122°17'0 0.0
2016-Dec-09 09:32N 37°47' W 122°17'0 0.0
2016-Dec-09 08:32N 37°47' W 122°17'0 0.0
2016-Dec-09 07:32N 37°47' W 122°17'0 0.0
2016-Dec-09 06:32N 37°47' W 122°17'0 0.0
2016-Dec-09 05:32N 37°47' W 122°17'0 0.0
2016-Dec-09 04:32N 37°47' W 122°17'0 0.0
2016-Dec-09 03:32N 37°47' W 122°17'0 0.0
2016-Dec-09 02:32N 37°47' W 122°17'0 0.0
2016-Dec-09 01:32N 37°47' W 122°17'3 2.7
2016-Dec-09 00:34N 37°48' W 122°21'2 1.6
2016-Dec-08 23:34N 37°46' W 122°21'3 3.3
2016-Dec-08 22:33N 37°48' W 122°17'0 0.2
2016-Dec-08 21:34N 37°47' W 122°17'0 0.0
2016-Dec-08 20:34N 37°47' W 122°17'0 0.0
2016-Dec-08 19:33N 37°47' W 122°17'0 0.0
2016-Dec-08 18:33N 37°47' W 122°17'0 0.0
2016-Dec-08 17:33N 37°47' W 122°17'0 0.0
2016-Dec-08 16:33N 37°47' W 122°17'0 0.0
2016-Dec-08 15:33N 37°47' W 122°17'0 0.0
2016-Dec-08 14:33N 37°47' W 122°17'0 0.0
2016-Dec-08 13:33N 37°47' W 122°17'0 0.0
2016-Dec-08 12:34N 37°47' W 122°17'0 0.0
2016-Dec-08 11:33N 37°47' W 122°17'0 0.0
2016-Dec-08 10:33N 37°47' W 122°17'0 0.0
2016-Dec-08 09:33N 37°47' W 122°17'0 0.0
2016-Dec-08 08:33N 37°47' W 122°17'0 0.0
2016-Dec-08 07:33N 37°47' W 122°17'0 0.0
2016-Dec-08 06:33N 37°47' W 122°17'0 0.0
2016-Dec-08 05:34N 37°47' W 122°17'0 0.0
2016-Dec-08 04:34N 37°47' W 122°17'0 0.0
2016-Dec-08 03:34N 37°47' W 122°17'0 0.0
2016-Dec-08 02:33N 37°47' W 122°17'0 0.0
2016-Dec-08 01:33N 37°47' W 122°17'0 0.0
2016-Dec-08 00:33N 37°47' W 122°17'0 0.0
2016-Dec-07 23:34N 37°47' W 122°17'0 0.0
2016-Dec-07 22:34N 37°47' W 122°17'0 0.0
2016-Dec-07 21:33N 37°47' W 122°17'0 0.0
2016-Dec-07 20:33N 37°47' W 122°17'0 0.0
2016-Dec-07 19:33N 37°47' W 122°17'0 0.0
2016-Dec-07 18:33N 37°47' W 122°17'0 0.0
2016-Dec-07 17:33N 37°47' W 122°17'0 0.0
2016-Dec-07 16:33N 37°47' W 122°17'0 0.0
2016-Dec-07 15:34N 37°47' W 122°17'0 0.1
2016-Dec-07 14:33N 37°47' W 122°17'0 0.1
2016-Dec-07 13:34N 37°47' W 122°17'0 0.1
2016-Dec-07 12:33N 37°47' W 122°17'0 0.0
2016-Dec-07 11:33N 37°47' W 122°17'0 0.0
2016-Dec-07 10:33N 37°47' W 122°17'0 0.0
2016-Dec-07 09:34N 37°47' W 122°17'0 0.0
2016-Dec-07 08:33N 37°47' W 122°17'0 0.0
2016-Dec-07 07:33N 37°47' W 122°17'0 0.0
2016-Dec-07 06:33N 37°47' W 122°17'0 0.0
2016-Dec-07 05:34N 37°47' W 122°17'0 0.0
2016-Dec-07 04:33N 37°47' W 122°17'0 0.0
2016-Dec-07 03:33N 37°47' W 122°17'0 0.0
2016-Dec-07 02:33N 37°47' W 122°17'0 0.0
2016-Dec-07 01:33N 37°47' W 122°17'0 0.0
2016-Dec-07 00:33N 37°47' W 122°17'0 0.0
2016-Dec-06 23:33N 37°47' W 122°17'0 0.0
2016-Dec-06 22:33N 37°47' W 122°17'0 0.0
2016-Dec-06 21:33N 37°47' W 122°17'0 0.0
2016-Dec-06 20:33N 37°47' W 122°17'0 0.0
2016-Dec-06 18:33N 37°47' W 122°17'0 0.0
2016-Dec-06 17:33N 37°47' W 122°17'0 0.0
2016-Dec-06 16:33N 37°47' W 122°17'0 0.0
2016-Dec-06 15:33N 37°47' W 122°17'0 0.0
2016-Dec-06 14:33N 37°47' W 122°17'0 0.0
2016-Dec-06 13:33N 37°47' W 122°17'0 0.0
2016-Dec-06 12:34N 37°47' W 122°17'0 0.0
2016-Dec-06 11:33N 37°47' W 122°17'0 0.0
2016-Dec-06 10:33N 37°47' W 122°17'0 0.0
2016-Dec-06 09:33N 37°47' W 122°17'0 0.0
2016-Dec-06 08:34N 37°47' W 122°17'0 0.0
2016-Dec-06 07:33N 37°47' W 122°17'0 0.0
2016-Dec-06 06:34N 37°47' W 122°17'0 0.0
2016-Dec-06 05:33N 37°47' W 122°17'0 0.0
2016-Dec-06 04:34N 37°47' W 122°17'0 0.0
2016-Dec-06 03:33N 37°47' W 122°17'0 0.0
2016-Dec-06 02:34N 37°47' W 122°17'0 0.0
2016-Dec-06 01:33N 37°47' W 122°17'0 0.0
2016-Dec-06 00:34N 37°47' W 122°17'0 0.0
2016-Dec-05 23:33N 37°47' W 122°17'0 0.0
2016-Dec-05 22:33N 37°47' W 122°17'0 0.0
2016-Dec-05 21:33N 37°47' W 122°17'0 0.0
2016-Dec-05 20:34N 37°47' W 122°17'0 0.0
2016-Dec-05 19:33N 37°47' W 122°17'0 0.0
2016-Dec-05 18:33N 37°47' W 122°17'0 0.0
2016-Dec-05 17:33N 37°47' W 122°17'0 0.0
2016-Dec-05 16:33N 37°47' W 122°17'0 0.0
2016-Dec-05 15:33N 37°47' W 122°17'0 0.0
2016-Dec-05 14:34N 37°47' W 122°17'0 0.0
2016-Dec-05 13:33N 37°47' W 122°17'0 0.0
2016-Dec-05 12:33N 37°47' W 122°17'0 0.0
2016-Dec-05 11:33N 37°47' W 122°17'0 0.0
2016-Dec-05 10:33N 37°47' W 122°17'0 0.0
2016-Dec-05 09:33N 37°47' W 122°17'0 0.0
2016-Dec-05 08:33N 37°47' W 122°17'0 0.0
2016-Dec-05 07:33N 37°47' W 122°17'0 0.0
2016-Dec-05 06:34N 37°47' W 122°17'0 0.0
2016-Dec-05 05:34N 37°47' W 122°17'0 0.0
2016-Dec-05 04:33N 37°47' W 122°17'0 0.0
2016-Dec-05 03:34N 37°47' W 122°17'0 0.0
2016-Dec-05 02:33N 37°47' W 122°17'0 0.0
2016-Dec-05 01:33N 37°47' W 122°17'0 0.0
2016-Dec-05 00:33N 37°47' W 122°17'0 0.0
2016-Dec-04 23:33N 37°47' W 122°17'0 0.0
2016-Dec-04 22:33N 37°47' W 122°17'0 0.0
2016-Dec-04 21:33N 37°47' W 122°17'0 0.0
2016-Dec-04 20:33N 37°47' W 122°17'0 0.0
2016-Dec-04 19:33N 37°47' W 122°17'0 0.0
2016-Dec-04 18:33N 37°47' W 122°17'0 0.0
2016-Dec-04 17:34N 37°47' W 122°17'0 0.0
2016-Dec-04 16:33N 37°47' W 122°17'0 0.0
2016-Dec-04 15:33N 37°47' W 122°17'0 0.0
2016-Dec-04 14:33N 37°47' W 122°17'0 0.0
2016-Dec-04 13:33N 37°47' W 122°17'0 0.0
2016-Dec-04 12:33N 37°47' W 122°17'0 0.0
2016-Dec-04 11:33N 37°47' W 122°17'0 0.0
2016-Dec-04 10:33N 37°47' W 122°17'0 0.0
2016-Dec-04 09:34N 37°47' W 122°17'0 0.0
2016-Dec-04 08:34N 37°47' W 122°17'0 0.0
2016-Dec-04 07:34N 37°47' W 122°17'0 0.0
2016-Dec-04 06:33N 37°47' W 122°17'0 0.0
2016-Dec-04 05:33N 37°47' W 122°17'0 0.0
2016-Dec-04 04:33N 37°47' W 122°17'0 0.0
2016-Dec-04 03:33N 37°47' W 122°17'0 0.0
2016-Dec-04 02:33N 37°47' W 122°17'0 0.0
2016-Dec-04 01:33N 37°47' W 122°17'0 0.0
2016-Dec-04 00:33N 37°47' W 122°17'0 0.0
2016-Dec-03 23:33N 37°47' W 122°17'0 0.0
2016-Dec-03 22:33N 37°47' W 122°17'0 0.0
2016-Dec-03 21:33N 37°47' W 122°17'0 0.0
2016-Dec-03 20:33N 37°47' W 122°17'0 0.0
2016-Dec-03 19:33N 37°47' W 122°17'0 0.0
2016-Dec-03 18:33N 37°47' W 122°17'0 0.0
2016-Dec-03 17:33N 37°47' W 122°17'0 0.0
2016-Dec-03 16:33N 37°47' W 122°17'0 0.0
2016-Dec-03 15:33N 37°47' W 122°17'0 0.0
2016-Dec-03 14:33N 37°47' W 122°17'0 0.0
2016-Dec-03 13:33N 37°47' W 122°17'0 0.0
2016-Dec-03 12:33N 37°47' W 122°17'0 0.0
2016-Dec-03 11:33N 37°47' W 122°17'0 0.0
2016-Dec-03 10:34N 37°47' W 122°17'0 0.0
2016-Dec-03 09:33N 37°47' W 122°17'0 0.0
2016-Dec-03 08:33N 37°47' W 122°17'0 0.0
2016-Dec-03 07:33N 37°47' W 122°17'0 0.0
2016-Dec-03 06:33N 37°47' W 122°17'0 0.0
2016-Dec-03 05:33N 37°47' W 122°17'0 0.0
2016-Dec-03 04:33N 37°47' W 122°17'0 0.0
2016-Dec-03 03:33N 37°47' W 122°17'  
Track history (hours):
 
Tides and Currents Weather Stations Pressure Air Temp Water Temp Dewpoint Dewpoint Depression Visibility Wind Speed Wind Dir Waves Ship Positions

National Geographic Sea Bird

Owner: Lindblad Expeditions, Inc., SEATTLE, WA. More information available from US FCC via Universal Licensing System and Coast Guard Vessel Documentation Center.

Last reported at 2016-Dec-13 03:10 UTC. Time now 2017-Mar-30 14:42 UTC.
Position N 30°42' W 117°05'.
Warning: this ship's position is months out of date.

Length 50 m; draft 2.7 m.

Type: Passenger vessel. MMSI: 366892350.

Date/timePositionNaut miles runAvg speedWind from/ knotsBaromVisibWave heightAir tempDewpointWater temp
2016-Dec-13 03:10N 30°42' W 117°05'3710.3
2016-Dec-12 23:33N 31°10' W 117°34'1110.4
2016-Dec-12 22:29N 31°18' W 117°42'1010.3
2016-Dec-12 21:29N 31°25' W 117°51'2010.6
2016-Dec-12 19:33N 31°40' W 118°07'5810.9
2016-Dec-12 14:15N 32°25' W 118°49'710.7
2016-Dec-12 13:33N 32°29' W 118°57'1310.6
2016-Dec-12 12:19N 32°36' W 119°10'810.5
2016-Dec-12 11:33N 32°41' W 119°18'1110.3
2016-Dec-12 10:31N 32°49' W 119°26'1010.3
2016-Dec-12 09:33N 32°56' W 119°35'1110.7
2016-Dec-12 08:33N 33°03' W 119°44'1410.5
2016-Dec-12 07:15N 33°12' W 119°56'910.2
2016-Dec-12 06:20N 33°18' W 120°05'810.2
2016-Dec-12 05:32N 33°24' W 120°12'1111.0
2016-Dec-12 04:33N 33°31' W 120°22'1111.0
2016-Dec-12 03:33N 33°38' W 120°32'1110.6
2016-Dec-12 02:33N 33°45' W 120°41'1110.3
2016-Dec-12 01:29N 33°53' W 120°51'910.2
2016-Dec-12 00:33N 33°59' W 120°59'1010.1
2016-Dec-11 23:32N 34°08' W 121°06'1010.7
2016-Dec-11 22:33N 34°17' W 121°12'1110.9
2016-Dec-11 21:32N 34°27' W 121°18'1111.1
2016-Dec-11 20:33N 34°37' W 121°24'1111.1
2016-Dec-11 19:32N 34°47' W 121°31'1210.7
2016-Dec-11 18:28N 34°57' W 121°38'1010.5
2016-Dec-11 17:33N 35°05' W 121°44'1110.8
2016-Dec-11 16:33N 35°14' W 121°50'10710.5
2016-Dec-11 06:27N 36°53' W 122°39'1010.3
2016-Dec-11 05:31N 37°03' W 122°41'2010.1
2016-Dec-11 03:33N 37°23' W 122°44'10 9.8
2016-Dec-11 02:33N 37°33' W 122°44'10 9.6
2016-Dec-11 01:33N 37°42' W 122°43'7 7.2
2016-Dec-11 00:33N 37°47' W 122°37'7 7.4
2016-Dec-10 23:33N 37°49' W 122°28'5 5.1
2016-Dec-10 22:33N 37°48' W 122°22'3 3.0
2016-Dec-10 21:33N 37°48' W 122°18'0 0.5
2016-Dec-10 20:33N 37°47' W 122°17'0 0.0
2016-Dec-10 19:30N 37°47' W 122°17'0 0.0
2016-Dec-10 18:30N 37°47' W 122°17'0 0.0
2016-Dec-10 17:33N 37°47' W 122°17'0 0.0
2016-Dec-10 16:33N 37°47' W 122°17'0 0.0
2016-Dec-10 15:33N 37°47' W 122°17'0 0.0
2016-Dec-10 14:33N 37°47' W 122°17'0 0.0
2016-Dec-10 13:33N 37°47' W 122°17'0 0.0
2016-Dec-10 12:33N 37°47' W 122°17'0 0.0
2016-Dec-10 11:33N 37°47' W 122°17'0 0.0
2016-Dec-10 10:33N 37°47' W 122°17'0 0.0
2016-Dec-10 09:33N 37°47' W 122°17'0 0.0
2016-Dec-10 08:33N 37°47' W 122°17'0 0.0
2016-Dec-10 07:32N 37°47' W 122°17'0 0.0
2016-Dec-10 06:32N 37°47' W 122°17'0 0.0
2016-Dec-10 05:32N 37°47' W 122°17'0 0.0
2016-Dec-10 04:33N 37°47' W 122°17'0 0.0
2016-Dec-10 03:32N 37°47' W 122°17'0 0.0
2016-Dec-10 02:32N 37°47' W 122°17'0 0.0
2016-Dec-10 01:32N 37°47' W 122°17'0 0.0
2016-Dec-10 00:32N 37°47' W 122°17'0 0.0
2016-Dec-09 23:32N 37°47' W 122°17'0 0.0
2016-Dec-09 22:32N 37°47' W 122°17'0 0.0
2016-Dec-09 21:32N 37°47' W 122°17'0 0.0
2016-Dec-09 20:32N 37°47' W 122°17'0 0.0
2016-Dec-09 19:32N 37°47' W 122°17'0 0.0
2016-Dec-09 18:32N 37°47' W 122°17'0 0.0
2016-Dec-09 17:32N 37°47' W 122°17'0 0.0
2016-Dec-09 16:32N 37°47' W 122°17'0 0.0
2016-Dec-09 15:32N 37°47' W 122°17'0 0.0
2016-Dec-09 14:32N 37°47' W 122°17'0 0.0
2016-Dec-09 13:32N 37°47' W 122°17'0 0.0
2016-Dec-09 12:32N 37°47' W 122°17'0 0.0
2016-Dec-09 11:32N 37°47' W 122°17'0 0.0
2016-Dec-09 10:32N 37°47' W 122°17'0 0.0
2016-Dec-09 09:32N 37°47' W 122°17'0 0.0
2016-Dec-09 08:32N 37°47' W 122°17'0 0.0
2016-Dec-09 07:32N 37°47' W 122°17'0 0.0
2016-Dec-09 06:32N 37°47' W 122°17'0 0.0
2016-Dec-09 05:32N 37°47' W 122°17'0 0.0
2016-Dec-09 04:32N 37°47' W 122°17'0 0.0
2016-Dec-09 03:32N 37°47' W 122°17'0 0.0
2016-Dec-09 02:32N 37°47' W 122°17'0 0.0
2016-Dec-09 01:32N 37°47' W 122°17'3 2.7
2016-Dec-09 00:34N 37°48' W 122°21'2 1.6
2016-Dec-08 23:34N 37°46' W 122°21'3 3.3
2016-Dec-08 22:33N 37°48' W 122°17'0 0.2
2016-Dec-08 21:34N 37°47' W 122°17'0 0.0
2016-Dec-08 20:34N 37°47' W 122°17'0 0.0
2016-Dec-08 19:33N 37°47' W 122°17'0 0.0
2016-Dec-08 18:33N 37°47' W 122°17'0 0.0
2016-Dec-08 17:33N 37°47' W 122°17'0 0.0
2016-Dec-08 16:33N 37°47' W 122°17'0 0.0
2016-Dec-08 15:33N 37°47' W 122°17'0 0.0
2016-Dec-08 14:33N 37°47' W 122°17'0 0.0
2016-Dec-08 13:33N 37°47' W 122°17'0 0.0
2016-Dec-08 12:34N 37°47' W 122°17'0 0.0
2016-Dec-08 11:33N 37°47' W 122°17'0 0.0
2016-Dec-08 10:33N 37°47' W 122°17'0 0.0
2016-Dec-08 09:33N 37°47' W 122°17'0 0.0
2016-Dec-08 08:33N 37°47' W 122°17'0 0.0
2016-Dec-08 07:33N 37°47' W 122°17'0 0.0
2016-Dec-08 06:33N 37°47' W 122°17'0 0.0
2016-Dec-08 05:34N 37°47' W 122°17'0 0.0
2016-Dec-08 04:34N 37°47' W 122°17'0 0.0
2016-Dec-08 03:34N 37°47' W 122°17'0 0.0
2016-Dec-08 02:33N 37°47' W 122°17'0 0.0
2016-Dec-08 01:33N 37°47' W 122°17'0 0.0
2016-Dec-08 00:33N 37°47' W 122°17'0 0.0
2016-Dec-07 23:34N 37°47' W 122°17'0 0.0
2016-Dec-07 22:34N 37°47' W 122°17'0 0.0
2016-Dec-07 21:33N 37°47' W 122°17'0 0.0
2016-Dec-07 20:33N 37°47' W 122°17'0 0.0
2016-Dec-07 19:33N 37°47' W 122°17'0 0.0
2016-Dec-07 18:33N 37°47' W 122°17'0 0.0
2016-Dec-07 17:33N 37°47' W 122°17'0 0.0
2016-Dec-07 16:33N 37°47' W 122°17'0 0.0
2016-Dec-07 15:34N 37°47' W 122°17'0 0.1
2016-Dec-07 14:33N 37°47' W 122°17'0 0.1
2016-Dec-07 13:34N 37°47' W 122°17'0 0.1
2016-Dec-07 12:33N 37°47' W 122°17'0 0.0
2016-Dec-07 11:33N 37°47' W 122°17'0 0.0
2016-Dec-07 10:33N 37°47' W 122°17'0 0.0
2016-Dec-07 09:34N 37°47' W 122°17'0 0.0
2016-Dec-07 08:33N 37°47' W 122°17'0 0.0
2016-Dec-07 07:33N 37°47' W 122°17'0 0.0
2016-Dec-07 06:33N 37°47' W 122°17'0 0.0
2016-Dec-07 05:34N 37°47' W 122°17'0 0.0
2016-Dec-07 04:33N 37°47' W 122°17'0 0.0
2016-Dec-07 03:33N 37°47' W 122°17'0 0.0
2016-Dec-07 02:33N 37°47' W 122°17'0 0.0
2016-Dec-07 01:33N 37°47' W 122°17'0 0.0
2016-Dec-07 00:33N 37°47' W 122°17'0 0.0
2016-Dec-06 23:33N 37°47' W 122°17'0 0.0
2016-Dec-06 22:33N 37°47' W 122°17'0 0.0
2016-Dec-06 21:33N 37°47' W 122°17'0 0.0
2016-Dec-06 20:33N 37°47' W 122°17'0 0.0
2016-Dec-06 18:33N 37°47' W 122°17'0 0.0
2016-Dec-06 17:33N 37°47' W 122°17'0 0.0
2016-Dec-06 16:33N 37°47' W 122°17'0 0.0
2016-Dec-06 15:33N 37°47' W 122°17'0 0.0
2016-Dec-06 14:33N 37°47' W 122°17'0 0.0
2016-Dec-06 13:33N 37°47' W 122°17'0 0.0
2016-Dec-06 12:34N 37°47' W 122°17'0 0.0
2016-Dec-06 11:33N 37°47' W 122°17'0 0.0
2016-Dec-06 10:33N 37°47' W 122°17'0 0.0
2016-Dec-06 09:33N 37°47' W 122°17'0 0.0
2016-Dec-06 08:34N 37°47' W 122°17'0 0.0
2016-Dec-06 07:33N 37°47' W 122°17'0 0.0
2016-Dec-06 06:34N 37°47' W 122°17'0 0.0
2016-Dec-06 05:33N 37°47' W 122°17'0 0.0
2016-Dec-06 04:34N 37°47' W 122°17'0 0.0
2016-Dec-06 03:33N 37°47' W 122°17'0 0.0
2016-Dec-06 02:34N 37°47' W 122°17'0 0.0
2016-Dec-06 01:33N 37°47' W 122°17'0 0.0
2016-Dec-06 00:34N 37°47' W 122°17'0 0.0
2016-Dec-05 23:33N 37°47' W 122°17'0 0.0
2016-Dec-05 22:33N 37°47' W 122°17'0 0.0
2016-Dec-05 21:33N 37°47' W 122°17'0 0.0
2016-Dec-05 20:34N 37°47' W 122°17'0 0.0
2016-Dec-05 19:33N 37°47' W 122°17'0 0.0
2016-Dec-05 18:33N 37°47' W 122°17'0 0.0
2016-Dec-05 17:33N 37°47' W 122°17'0 0.0
2016-Dec-05 16:33N 37°47' W 122°17'0 0.0
2016-Dec-05 15:33N 37°47' W 122°17'0 0.0
2016-Dec-05 14:34N 37°47' W 122°17'0 0.0
2016-Dec-05 13:33N 37°47' W 122°17'0 0.0
2016-Dec-05 12:33N 37°47' W 122°17'0 0.0
2016-Dec-05 11:33N 37°47' W 122°17'0 0.0
2016-Dec-05 10:33N 37°47' W 122°17'0 0.0
2016-Dec-05 09:33N 37°47' W 122°17'0 0.0
2016-Dec-05 08:33N 37°47' W 122°17'0 0.0
2016-Dec-05 07:33N 37°47' W 122°17'0 0.0
2016-Dec-05 06:34N 37°47' W 122°17'0 0.0
2016-Dec-05 05:34N 37°47' W 122°17'0 0.0
2016-Dec-05 04:33N 37°47' W 122°17'0 0.0
2016-Dec-05 03:34N 37°47' W 122°17'0 0.0
2016-Dec-05 02:33N 37°47' W 122°17'0 0.0
2016-Dec-05 01:33N 37°47' W 122°17'0 0.0
2016-Dec-05 00:33N 37°47' W 122°17'0 0.0
2016-Dec-04 23:33N 37°47' W 122°17'0 0.0
2016-Dec-04 22:33N 37°47' W 122°17'0 0.0
2016-Dec-04 21:33N 37°47' W 122°17'0 0.0
2016-Dec-04 20:33N 37°47' W 122°17'0 0.0
2016-Dec-04 19:33N 37°47' W 122°17'0 0.0
2016-Dec-04 18:33N 37°47' W 122°17'0 0.0
2016-Dec-04 17:34N 37°47' W 122°17'0 0.0
2016-Dec-04 16:33N 37°47' W 122°17'0 0.0
2016-Dec-04 15:33N 37°47' W 122°17'0 0.0
2016-Dec-04 14:33N 37°47' W 122°17'0 0.0
2016-Dec-04 13:33N 37°47' W 122°17'0 0.0
2016-Dec-04 12:33N 37°47' W 122°17'0 0.0
2016-Dec-04 11:33N 37°47' W 122°17'0 0.0
2016-Dec-04 10:33N 37°47' W 122°17'0 0.0
2016-Dec-04 09:34N 37°47' W 122°17'0 0.0
2016-Dec-04 08:34N 37°47' W 122°17'0 0.0
2016-Dec-04 07:34N 37°47' W 122°17'0 0.0
2016-Dec-04 06:33N 37°47' W 122°17'0 0.0
2016-Dec-04 05:33N 37°47' W 122°17'0 0.0
2016-Dec-04 04:33N 37°47' W 122°17'0 0.0
2016-Dec-04 03:33N 37°47' W 122°17'0 0.0
2016-Dec-04 02:33N 37°47' W 122°17'0 0.0
2016-Dec-04 01:33N 37°47' W 122°17'0 0.0
2016-Dec-04 00:33N 37°47' W 122°17'0 0.0
2016-Dec-03 23:33N 37°47' W 122°17'0 0.0
2016-Dec-03 22:33N 37°47' W 122°17'0 0.0
2016-Dec-03 21:33N 37°47' W 122°17'0 0.0
2016-Dec-03 20:33N 37°47' W 122°17'0 0.0
2016-Dec-03 19:33N 37°47' W 122°17'0 0.0
2016-Dec-03 18:33N 37°47' W 122°17'0 0.0
2016-Dec-03 17:33N 37°47' W 122°17'0 0.0
2016-Dec-03 16:33N 37°47' W 122°17'0 0.0
2016-Dec-03 15:33N 37°47' W 122°17'0 0.0
2016-Dec-03 14:33N 37°47' W 122°17'0 0.0
2016-Dec-03 13:33N 37°47' W 122°17'0 0.0
2016-Dec-03 12:33N 37°47' W 122°17'0 0.0
2016-Dec-03 11:33N 37°47' W 122°17'0 0.0
2016-Dec-03 10:34N 37°47' W 122°17'0 0.0
2016-Dec-03 09:33N 37°47' W 122°17'0 0.0
2016-Dec-03 08:33N 37°47' W 122°17'0 0.0
2016-Dec-03 07:33N 37°47' W 122°17'0 0.0
2016-Dec-03 06:33N 37°47' W 122°17'0 0.0
2016-Dec-03 05:33N 37°47' W 122°17'0 0.0
2016-Dec-03 04:33N 37°47' W 122°17'0 0.0
2016-Dec-03 03:33N 37°47' W 122°17'  

Dump ship's entire track history